Time;durP1;ratioP1;P1;durP2;ratioP2;P2;SDS_P1;SDS_P2;PMS_P1;PMS_P2;Temp;Humidity;BMP_temperature;BMP_pressure;BME280_temperature;BME280_humidity;BME280_pressure;Samples;Min_cycle;Max_cycle;Signal;HPM_P1;HPM_P2
2023/03/05 00:01:54;;;;;;;20.58;6.75;;;2.10;99.90;;;;;;5039466;28;20132;-76
2023/03/05 00:04:22;;;;;;;19.80;7.32;;;2.10;99.90;;;;;;5040207;28;20057;-76
2023/03/05 00:06:49;;;;;;;22.48;7.22;;;2.10;99.90;;;;;;5039867;28;20040;-76
2023/03/05 00:09:16;;;;;;;24.00;7.93;;;2.10;99.90;;;;;;5047074;28;20056;-76
2023/03/05 00:11:43;;;;;;;27.60;8.15;;;2.10;99.90;;;;;;5043582;28;20029;-76
2023/03/05 00:14:10;;;;;;;25.55;7.45;;;2.10;99.90;;;;;;5034247;28;20036;-76
2023/03/05 00:16:36;;;;;;;26.83;7.38;;;2.10;99.90;;;;;;5039251;28;20048;-76
2023/03/05 00:19:04;;;;;;;22.95;7.88;;;2.10;99.90;;;;;;5042518;28;20402;-76
2023/03/05 00:21:36;;;;;;;22.45;6.80;;;2.10;99.90;;;;;;5045661;28;20114;-76
2023/03/05 00:24:07;;;;;;;25.23;6.63;;;2.10;99.90;;;;;;5026068;28;20494;-76
2023/03/05 00:26:37;;;;;;;25.50;6.30;;;2.10;99.90;;;;;;5039809;28;20099;-75
2023/03/05 00:29:05;;;;;;;24.00;7.28;;;2.00;99.90;;;;;;5046276;28;20047;-75
2023/03/05 00:31:33;;;;;;;22.10;7.43;;;2.10;99.90;;;;;;5031978;28;20132;-77
2023/03/05 00:34:03;;;;;;;25.17;7.20;;;2.10;99.90;;;;;;5046379;28;20049;-75
2023/03/05 00:36:30;;;;;;;16.67;6.15;;;2.10;99.90;;;;;;5043555;28;20068;-75
2023/03/05 00:38:58;;;;;;;16.83;6.85;;;2.10;99.90;;;;;;5041772;28;20637;-75
2023/03/05 00:41:25;;;;;;;18.23;6.80;;;2.20;99.90;;;;;;5031494;28;20075;-77
2023/03/05 00:43:53;;;;;;;17.25;6.20;;;2.10;99.90;;;;;;5044882;28;20052;-76
2023/03/05 00:46:19;;;;;;;16.58;7.13;;;2.10;99.90;;;;;;5032230;28;20055;-78
2023/03/05 00:48:46;;;;;;;22.35;7.18;;;2.10;99.90;;;;;;5041431;28;20052;-76
2023/03/05 00:51:13;;;;;;;22.50;6.10;;;2.10;99.90;;;;;;5034151;28;20127;-77
2023/03/05 00:53:40;;;;;;;18.63;6.90;;;2.10;99.90;;;;;;5035379;28;20135;-77
2023/03/05 00:56:06;;;;;;;17.50;6.45;;;2.20;99.90;;;;;;5044147;28;20665;-77
2023/03/05 00:58:33;;;;;;;21.38;6.38;;;2.20;99.90;;;;;;5037127;28;20401;-76
2023/03/05 01:01:01;;;;;;;20.25;6.75;;;2.20;99.90;;;;;;5031931;28;20044;-77
2023/03/05 01:03:29;;;;;;;20.15;7.57;;;2.20;99.90;;;;;;5035941;28;20040;-76
2023/03/05 01:05:56;;;;;;;20.65;9.07;;;2.20;99.90;;;;;;5033609;28;20059;-79
2023/03/05 01:08:23;;;;;;;20.95;6.90;;;2.10;99.90;;;;;;5048578;28;20041;-76
2023/03/05 01:10:50;;;;;;;22.00;6.57;;;2.20;99.90;;;;;;5033087;28;20040;-78
2023/03/05 01:13:17;;;;;;;19.88;6.55;;;2.10;99.90;;;;;;5049844;28;20448;-78
2023/03/05 01:15:46;;;;;;;17.98;6.30;;;2.10;99.90;;;;;;5044866;28;20044;-77
2023/03/05 01:18:14;;;;;;;16.70;6.00;;;2.10;99.90;;;;;;5043997;28;20459;-78
2023/03/05 01:20:40;;;;;;;15.35;6.80;;;2.10;99.90;;;;;;5035620;28;20043;-79
2023/03/05 01:23:07;;;;;;;16.92;6.25;;;2.10;99.90;;;;;;5023493;28;20079;-77
2023/03/05 01:25:34;;;;;;;19.52;6.65;;;2.10;99.90;;;;;;5052404;28;20078;-77
2023/03/05 01:28:01;;;;;;;20.08;6.80;;;2.10;99.90;;;;;;5041033;28;20122;-78
2023/03/05 01:30:28;;;;;;;20.92;6.75;;;2.10;99.90;;;;;;5041359;28;20044;-76
2023/03/05 01:32:55;;;;;;;23.08;6.82;;;2.10;99.90;;;;;;5028198;28;20135;-78
2023/03/05 01:35:23;;;;;;;17.73;7.07;;;2.10;99.90;;;;;;5037600;28;20063;-76
2023/03/05 01:37:52;;;;;;;24.88;7.18;;;2.20;99.90;;;;;;5050114;28;20036;-78
2023/03/05 01:40:29;;;;;;;24.45;7.55;;;2.10;99.90;;;;;;5038066;28;20048;-76
2023/03/05 01:43:00;;;;;;;17.30;6.47;;;2.10;99.90;;;;;;5043669;28;20113;-76
2023/03/05 01:45:31;;;;;;;28.50;6.55;;;2.10;99.90;;;;;;5041170;28;20052;-76
2023/03/05 01:47:59;;;;;;;16.65;6.10;;;2.10;99.90;;;;;;5038495;28;20553;-76
2023/03/05 01:50:27;;;;;;;21.23;7.10;;;2.10;99.90;;;;;;5005113;28;1082682;-78
2023/03/05 01:53:00;;;;;;;23.92;7.20;;;2.00;99.90;;;;;;5054474;28;20045;-77
2023/03/05 01:55:29;;;;;;;21.52;8.13;;;2.00;99.90;;;;;;5041505;28;20075;-78
2023/03/05 01:58:03;;;;;;;30.85;7.50;;;2.00;99.90;;;;;;5054153;28;20048;-76
2023/03/05 02:00:35;;;;;;;17.67;6.03;;;2.00;99.90;;;;;;5037691;28;20082;-77
2023/03/05 02:03:05;;;;;;;27.48;9.30;;;1.90;99.90;;;;;;5031268;28;20091;-79
2023/03/05 02:05:34;;;;;;;27.77;6.63;;;2.00;99.90;;;;;;5033451;28;20070;-76
2023/03/05 02:08:07;;;;;;;26.30;8.13;;;1.90;99.90;;;;;;5041721;28;20080;-76
2023/03/05 02:10:43;;;;;;;28.92;7.75;;;1.90;99.90;;;;;;5049987;28;20044;-78
2023/03/05 02:13:17;;;;;;;25.63;6.53;;;2.00;99.90;;;;;;5054886;28;20744;-75
2023/03/05 02:15:46;;;;;;;21.05;6.63;;;2.00;99.90;;;;;;5046985;28;20044;-75
2023/03/05 02:18:13;;;;;;;17.92;7.15;;;2.00;99.90;;;;;;5065553;28;20437;-78
2023/03/05 02:20:55;;;;;;;20.05;7.47;;;2.00;99.90;;;;;;5054712;28;20036;-78
2023/03/05 02:23:24;;;;;;;34.17;9.20;;;1.90;99.90;;;;;;5041267;28;20082;-77
2023/03/05 02:25:52;;;;;;;33.20;8.82;;;1.90;99.90;;;;;;5044926;28;20050;-77
2023/03/05 02:28:34;;;;;;;24.67;8.73;;;1.80;99.90;;;;;;5032901;28;20127;-75
2023/03/05 02:31:00;;;;;;;30.65;9.60;;;1.80;99.90;;;;;;5069581;28;20048;-76
2023/03/05 02:33:27;;;;;;;26.98;8.85;;;1.80;99.90;;;;;;5041656;28;20674;-77
2023/03/05 02:35:54;;;;;;;23.95;7.72;;;1.80;99.90;;;;;;5057320;28;20074;-76
2023/03/05 02:38:21;;;;;;;20.83;8.10;;;1.70;99.90;;;;;;5040734;28;20517;-77
2023/03/05 02:40:48;;;;;;;21.70;7.80;;;1.60;99.90;;;;;;5050408;28;20082;-77
2023/03/05 02:43:16;;;;;;;23.33;7.57;;;1.60;99.90;;;;;;5030575;28;20133;-77
2023/03/05 02:45:43;;;;;;;24.08;8.82;;;1.60;99.90;;;;;;5048660;28;20075;-76
2023/03/05 02:48:09;;;;;;;32.53;10.57;;;1.50;99.90;;;;;;5028435;28;20044;-75
2023/03/05 02:50:38;;;;;;;38.83;10.82;;;1.50;99.90;;;;;;5038124;28;20065;-78
2023/03/05 02:53:05;;;;;;;36.25;10.93;;;1.60;99.90;;;;;;5051758;28;20405;-76
2023/03/05 02:55:32;;;;;;;31.80;11.18;;;1.60;99.90;;;;;;5036470;28;20555;-77
2023/03/05 02:57:59;;;;;;;48.72;14.38;;;1.60;99.90;;;;;;5034563;28;20036;-76
2023/03/05 03:00:27;;;;;;;39.00;14.13;;;1.60;99.90;;;;;;5041376;28;20063;-77
2023/03/05 03:02:54;;;;;;;46.55;12.98;;;1.70;99.90;;;;;;5037194;28;20071;-78
2023/03/05 03:05:21;;;;;;;33.45;13.05;;;1.70;99.90;;;;;;5029726;28;20033;-76
2023/03/05 03:07:49;;;;;;;35.35;13.38;;;1.70;99.90;;;;;;5042244;28;20077;-76
2023/03/05 03:10:16;;;;;;;28.63;11.00;;;1.70;99.90;;;;;;5044886;28;20045;-77
2023/03/05 03:12:44;;;;;;;29.98;10.93;;;1.70;99.90;;;;;;5026330;28;20026;-77
2023/03/05 03:15:13;;;;;;;29.70;11.02;;;1.70;99.90;;;;;;5041669;28;20128;-76
2023/03/05 03:17:40;;;;;;;36.45;11.02;;;1.70;99.90;;;;;;5043772;28;20051;-78
2023/03/05 03:20:09;;;;;;;34.85;11.50;;;1.80;99.90;;;;;;5027952;28;20060;-76
2023/03/05 03:22:36;;;;;;;27.98;10.73;;;1.80;99.90;;;;;;5020680;28;20144;-77
2023/03/05 03:25:04;;;;;;;28.80;10.05;;;1.80;99.90;;;;;;5027644;28;20037;-78
2023/03/05 03:27:31;;;;;;;29.35;11.00;;;1.80;99.90;;;;;;5044428;28;20036;-76
2023/03/05 03:30:01;;;;;;;28.45;11.25;;;1.80;99.90;;;;;;5046125;28;20083;-75
2023/03/05 03:32:28;;;;;;;33.22;10.85;;;1.80;99.90;;;;;;5029359;28;20091;-77
2023/03/05 03:34:55;;;;;;;29.65;10.38;;;1.80;99.90;;;;;;5046860;28;20146;-78
2023/03/05 03:37:21;;;;;;;30.08;10.75;;;1.80;99.90;;;;;;5038899;28;20037;-76
2023/03/05 03:39:48;;;;;;;23.33;9.30;;;1.80;99.90;;;;;;5045394;28;20040;-76
2023/03/05 03:42:19;;;;;;;23.42;9.70;;;1.80;99.90;;;;;;5059694;28;20633;-81
2023/03/05 03:44:46;;;;;;;29.88;10.25;;;1.80;99.90;;;;;;5059895;28;20049;-77
2023/03/05 03:47:13;;;;;;;28.98;10.82;;;1.80;99.90;;;;;;5053973;28;20045;-78
2023/03/05 03:49:40;;;;;;;32.88;11.68;;;1.80;99.90;;;;;;5054294;28;20045;-77
2023/03/05 03:52:07;;;;;;;37.60;11.35;;;1.80;99.90;;;;;;5053570;28;20156;-78
2023/03/05 03:54:34;;;;;;;31.20;10.48;;;1.80;99.90;;;;;;5051365;28;20029;-79
2023/03/05 03:57:01;;;;;;;35.42;11.63;;;1.80;99.90;;;;;;5035804;28;20049;-76
2023/03/05 03:59:27;;;;;;;28.75;11.98;;;1.80;99.90;;;;;;5047033;28;20124;-76
2023/03/05 04:01:54;;;;;;;31.38;11.90;;;1.80;99.90;;;;;;5029592;28;20040;-77
2023/03/05 04:04:21;;;;;;;35.58;12.50;;;1.80;99.90;;;;;;5053173;28;20570;-75
2023/03/05 04:06:48;;;;;;;23.38;9.40;;;1.80;99.90;;;;;;5048592;28;20410;-75
2023/03/05 04:09:14;;;;;;;31.48;11.20;;;1.70;99.90;;;;;;5053144;28;20074;-75
2023/03/05 04:11:41;;;;;;;25.33;10.48;;;1.80;99.90;;;;;;5047982;28;20028;-76
2023/03/05 04:14:08;;;;;;;25.65;9.90;;;1.70;99.90;;;;;;5055118;28;22332;-76
2023/03/05 04:16:34;;;;;;;25.42;8.15;;;1.80;99.90;;;;;;5046572;28;20119;-75
2023/03/05 04:19:01;;;;;;;30.05;10.20;;;1.70;99.90;;;;;;5042038;28;20044;-75
2023/03/05 04:21:28;;;;;;;26.85;10.10;;;1.70;99.90;;;;;;5060077;28;20127;-77
2023/03/05 04:23:55;;;;;;;27.05;10.95;;;1.70;99.90;;;;;;5066104;28;20075;-76
2023/03/05 04:26:21;;;;;;;31.75;10.80;;;1.80;99.90;;;;;;5050748;28;20095;-75
2023/03/05 04:28:48;;;;;;;35.25;12.05;;;1.80;99.90;;;;;;5044387;28;20047;-75
2023/03/05 04:31:16;;;;;;;36.22;10.98;;;1.80;99.90;;;;;;5051123;28;20071;-76
2023/03/05 04:33:42;;;;;;;24.67;10.68;;;1.80;99.90;;;;;;5057079;28;20113;-75
2023/03/05 04:36:09;;;;;;;31.48;10.63;;;1.80;99.90;;;;;;5039123;28;20136;-76
2023/03/05 04:38:36;;;;;;;27.20;10.90;;;1.80;99.90;;;;;;5052018;28;20165;-76
2023/03/05 04:41:02;;;;;;;39.95;11.30;;;1.80;99.90;;;;;;5039438;28;20072;-76
2023/03/05 04:43:29;;;;;;;33.50;11.52;;;1.80;99.90;;;;;;5052598;28;20062;-77
2023/03/05 04:45:56;;;;;;;33.67;12.60;;;1.80;99.90;;;;;;5027427;28;20063;-77
2023/03/05 04:48:23;;;;;;;33.05;11.93;;;1.80;99.90;;;;;;5055350;28;20049;-76
2023/03/05 04:50:50;;;;;;;28.15;13.25;;;1.80;99.90;;;;;;5027463;28;20422;-77
2023/03/05 04:53:16;;;;;;;30.70;10.90;;;1.80;99.90;;;;;;5047684;28;20045;-79
2023/03/05 04:55:43;;;;;;;28.75;12.63;;;1.70;99.90;;;;;;5050233;28;20040;-76
2023/03/05 04:58:10;;;;;;;22.92;11.68;;;1.60;99.90;;;;;;5028377;28;20051;-79
2023/03/05 05:00:37;;;;;;;24.00;12.18;;;1.60;99.90;;;;;;5035020;28;20033;-75
2023/03/05 05:03:04;;;;;;;31.08;12.95;;;1.60;99.90;;;;;;5044494;28;20053;-77
2023/03/05 05:05:30;;;;;;;28.58;13.02;;;1.50;99.90;;;;;;5024629;28;20044;-76
2023/03/05 05:07:57;;;;;;;33.33;13.30;;;1.50;99.90;;;;;;5051768;28;20048;-76
2023/03/05 05:10:25;;;;;;;27.25;13.52;;;1.50;99.90;;;;;;5042752;28;20044;-77
2023/03/05 05:12:52;;;;;;;36.65;12.65;;;1.50;99.90;;;;;;5041493;28;20048;-77
2023/03/05 05:15:19;;;;;;;33.13;12.68;;;1.60;99.90;;;;;;5046719;28;20087;-76
2023/03/05 05:17:46;;;;;;;31.80;12.88;;;1.60;99.90;;;;;;5043768;28;20044;-77
2023/03/05 05:20:16;;;;;;;40.10;13.50;;;1.70;99.90;;;;;;5043357;28;20371;-77
2023/03/05 05:22:43;;;;;;;36.80;13.75;;;1.70;99.90;;;;;;5048330;28;20131;-77
2023/03/05 05:25:10;;;;;;;28.10;11.88;;;1.70;99.90;;;;;;5034661;28;20040;-76
2023/03/05 05:27:39;;;;;;;24.63;11.05;;;1.70;99.90;;;;;;5057093;28;20532;-78
2023/03/05 05:30:06;;;;;;;32.65;12.68;;;1.70;99.90;;;;;;5028187;28;20137;-77
2023/03/05 05:32:34;;;;;;;26.83;11.52;;;1.80;99.90;;;;;;5045193;28;20041;-77
2023/03/05 05:35:01;;;;;;;33.42;10.68;;;1.80;99.90;;;;;;5041404;28;20041;-76
2023/03/05 05:37:29;;;;;;;33.55;11.30;;;1.70;99.90;;;;;;5032946;28;20044;-77
2023/03/05 05:39:56;;;;;;;28.65;11.95;;;1.70;99.90;;;;;;5032037;28;20033;-78
2023/03/05 05:42:23;;;;;;;37.70;11.27;;;1.70;99.90;;;;;;5034794;28;20048;-77
2023/03/05 05:44:50;;;;;;;27.98;10.95;;;1.70;99.90;;;;;;5037497;28;20127;-79
2023/03/05 05:47:17;;;;;;;30.92;10.55;;;1.70;99.90;;;;;;5050458;28;20040;-79
2023/03/05 05:49:44;;;;;;;27.65;11.73;;;1.70;99.90;;;;;;5046223;28;20076;-78
2023/03/05 05:52:12;;;;;;;24.02;9.50;;;1.70;99.90;;;;;;5042723;28;20049;-76
2023/03/05 05:54:41;;;;;;;28.00;11.40;;;1.70;99.90;;;;;;5039276;28;20043;-76
2023/03/05 05:57:07;;;;;;;26.75;10.98;;;1.70;99.90;;;;;;5042986;28;20136;-76
2023/03/05 05:59:34;;;;;;;27.05;10.90;;;1.70;99.90;;;;;;5028368;28;20037;-77
2023/03/05 06:02:01;;;;;;;25.88;9.80;;;1.70;99.90;;;;;;5049736;28;20048;-78
2023/03/05 06:04:28;;;;;;;23.75;10.48;;;1.70;99.90;;;;;;5047137;28;20529;-77
2023/03/05 06:06:55;;;;;;;24.77;10.63;;;1.70;99.90;;;;;;5032103;28;20063;-77
2023/03/05 06:09:21;;;;;;;47.78;12.70;;;1.70;99.90;;;;;;5037881;28;20053;-77
2023/03/05 06:11:49;;;;;;;28.85;11.15;;;1.70;99.90;;;;;;5044281;28;20044;-78
2023/03/05 06:14:16;;;;;;;29.60;12.10;;;1.70;99.90;;;;;;5042623;28;20485;-77
2023/03/05 06:16:43;;;;;;;28.20;11.27;;;1.70;99.90;;;;;;5047665;28;20398;-77
2023/03/05 06:19:14;;;;;;;51.08;13.32;;;1.70;99.90;;;;;;5031054;28;20647;-78
2023/03/05 06:21:44;;;;;;;20.90;11.23;;;1.70;99.90;;;;;;5042745;28;20059;-77
2023/03/05 06:24:11;;;;;;;27.15;11.43;;;1.80;99.90;;;;;;5036705;28;20041;-78
2023/03/05 06:26:38;;;;;;;30.08;10.57;;;1.80;99.90;;;;;;5041296;28;20084;-77
2023/03/05 06:29:05;;;;;;;20.45;10.38;;;1.70;99.90;;;;;;5043810;28;20040;-78
2023/03/05 06:31:32;;;;;;;28.33;10.70;;;1.70;99.90;;;;;;5046701;28;20049;-76
2023/03/05 06:34:01;;;;;;;35.55;11.98;;;1.70;99.90;;;;;;5039285;28;20417;-77
2023/03/05 06:36:29;;;;;;;35.33;16.45;;;1.70;99.90;;;;;;5034298;28;20045;-77
2023/03/05 06:38:56;;;;;;;30.50;12.00;;;1.70;99.90;;;;;;5041274;28;20051;-78
2023/03/05 06:41:29;;;;;;;37.47;11.98;;;1.60;99.90;;;;;;5041085;28;20126;-79
2023/03/05 06:43:56;;;;;;;31.00;13.30;;;1.70;99.90;;;;;;5045813;28;20130;-79
2023/03/05 06:46:28;;;;;;;26.08;12.85;;;1.70;99.90;;;;;;5043511;28;20477;-76
2023/03/05 06:48:57;;;;;;;28.00;13.60;;;1.70;99.90;;;;;;5049439;28;20045;-78
2023/03/05 06:51:30;;;;;;;46.30;17.75;;;1.80;99.90;;;;;;5050623;28;20044;-77
2023/03/05 06:54:03;;;;;;;38.47;15.80;;;1.80;99.90;;;;;;5043649;28;20099;-76
2023/03/05 06:56:30;;;;;;;36.65;15.82;;;1.70;99.90;;;;;;5052382;28;20486;-77
2023/03/05 06:58:57;;;;;;;44.20;18.60;;;1.70;99.90;;;;;;5051323;28;20078;-77
2023/03/05 07:01:23;;;;;;;26.92;12.18;;;1.70;99.90;;;;;;5020754;28;20087;-77
2023/03/05 07:03:51;;;;;;;26.48;11.45;;;1.70;99.90;;;;;;5033237;28;20064;-78
2023/03/05 07:06:20;;;;;;;39.20;14.07;;;1.70;99.90;;;;;;5042325;28;20389;-79
2023/03/05 07:08:48;;;;;;;31.25;12.18;;;1.70;99.90;;;;;;5046809;28;20060;-76
2023/03/05 07:11:18;;;;;;;24.25;10.73;;;1.70;99.90;;;;;;5027998;28;20040;-79
2023/03/05 07:13:48;;;;;;;16.92;7.90;;;1.60;99.90;;;;;;5034053;28;20127;-80
2023/03/05 07:16:17;;;;;;;13.15;6.60;;;1.50;99.90;;;;;;5041567;28;20063;-78
2023/03/05 07:18:45;;;;;;;14.13;6.70;;;1.40;99.90;;;;;;5046458;28;20032;-77
2023/03/05 07:21:26;;;;;;;14.32;7.45;;;1.30;99.90;;;;;;5046475;28;20032;-78
2023/03/05 07:23:54;;;;;;;23.40;8.93;;;1.30;99.90;;;;;;5050484;28;20066;-78
2023/03/05 07:26:21;;;;;;;28.23;11.82;;;1.40;99.90;;;;;;5042702;28;20036;-78
2023/03/05 07:28:48;;;;;;;26.75;11.45;;;1.40;99.90;;;;;;5053014;28;20032;-77
2023/03/05 07:31:18;;;;;;;35.05;12.63;;;1.40;99.90;;;;;;5050674;28;20052;-78
2023/03/05 07:33:46;;;;;;;36.72;15.27;;;1.50;99.90;;;;;;5055084;28;20484;-78
2023/03/05 07:36:13;;;;;;;30.15;13.80;;;1.50;99.90;;;;;;5033259;28;20068;-78
2023/03/05 07:38:40;;;;;;;32.67;13.45;;;1.50;99.90;;;;;;5046749;28;20048;-79
2023/03/05 07:41:09;;;;;;;33.40;11.98;;;1.60;99.90;;;;;;5050351;28;20428;-78
2023/03/05 07:43:36;;;;;;;34.30;13.30;;;1.60;99.90;;;;;;5047709;28;20245;-78
2023/03/05 07:46:04;;;;;;;38.28;14.07;;;1.60;99.90;;;;;;5030745;28;20405;-77
2023/03/05 07:48:32;;;;;;;36.97;15.48;;;1.60;99.90;;;;;;5038611;28;20047;-79
2023/03/05 07:51:11;;;;;;;38.35;14.95;;;1.60;99.90;;;;;;5043434;28;20520;-78
2023/03/05 07:53:38;;;;;;;35.20;14.20;;;1.60;99.90;;;;;;5048527;28;20067;-77
2023/03/05 07:56:05;;;;;;;37.58;13.68;;;1.70;99.90;;;;;;5027985;28;20076;-78
2023/03/05 07:58:32;;;;;;;48.95;17.45;;;1.70;99.90;;;;;;5032249;28;20037;-77
2023/03/05 08:00:58;;;;;;;33.28;15.38;;;1.80;99.90;;;;;;5047238;28;20038;-80
2023/03/05 08:03:25;;;;;;;35.33;15.90;;;1.80;99.90;;;;;;5042337;28;20045;-76
2023/03/05 08:05:52;;;;;;;36.22;15.30;;;1.80;99.90;;;;;;5036653;28;20048;-77
2023/03/05 08:08:18;;;;;;;34.97;16.67;;;1.90;99.90;;;;;;5039950;28;20110;-79
2023/03/05 08:10:45;;;;;;;32.03;14.45;;;1.90;99.90;;;;;;5047451;28;20044;-76
2023/03/05 08:13:12;;;;;;;32.58;13.93;;;1.80;99.90;;;;;;5028539;28;20044;-77
2023/03/05 08:15:39;;;;;;;31.05;13.60;;;1.80;99.90;;;;;;5043741;28;20074;-78
2023/03/05 08:18:05;;;;;;;29.23;12.80;;;1.80;99.90;;;;;;5039226;28;20040;-78
2023/03/05 08:20:35;;;;;;;19.48;10.82;;;1.80;99.90;;;;;;5048650;28;20127;-76
2023/03/05 08:23:03;;;;;;;27.55;11.93;;;1.80;99.90;;;;;;5046755;28;20049;-77
2023/03/05 08:25:30;;;;;;;29.10;11.38;;;1.80;99.90;;;;;;5033947;28;20446;-77
2023/03/05 08:27:57;;;;;;;24.80;11.23;;;1.80;99.90;;;;;;5045544;28;20102;-76
2023/03/05 08:30:26;;;;;;;31.52;10.68;;;1.90;99.90;;;;;;5023625;28;20045;-78
2023/03/05 08:32:53;;;;;;;27.08;12.30;;;1.90;99.90;;;;;;5046254;28;20037;-76
2023/03/05 08:35:20;;;;;;;26.85;10.02;;;2.00;99.90;;;;;;5044935;28;20447;-78
2023/03/05 08:37:47;;;;;;;27.05;9.40;;;2.00;99.90;;;;;;5048878;28;20039;-77
2023/03/05 08:40:16;;;;;;;26.70;10.52;;;2.00;99.90;;;;;;5036109;28;20399;-78
2023/03/05 08:42:44;;;;;;;25.27;10.25;;;2.10;99.90;;;;;;5032230;28;20056;-80
2023/03/05 08:45:11;;;;;;;22.35;10.43;;;2.10;99.90;;;;;;5040560;28;20048;-77
2023/03/05 08:47:38;;;;;;;15.73;8.80;;;2.10;99.90;;;;;;5040674;28;20057;-78
2023/03/05 08:50:05;;;;;;;28.83;9.77;;;2.10;99.90;;;;;;5030307;28;20049;-75
2023/03/05 08:52:32;;;;;;;23.92;10.65;;;2.10;99.90;;;;;;5049960;28;20102;-79
2023/03/05 08:54:59;;;;;;;21.13;10.27;;;2.10;99.90;;;;;;5042481;28;20232;-78
2023/03/05 08:57:25;;;;;;;17.40;9.15;;;2.10;99.90;;;;;;5038806;28;20041;-77
2023/03/05 08:59:52;;;;;;;17.55;8.18;;;2.20;99.90;;;;;;5041604;28;20386;-78
2023/03/05 09:02:19;;;;;;;14.63;8.00;;;2.20;99.90;;;;;;5025864;28;20064;-77
2023/03/05 09:04:45;;;;;;;19.58;7.07;;;2.20;99.90;;;;;;5041016;28;20081;-78
2023/03/05 09:07:12;;;;;;;18.52;7.18;;;2.20;99.90;;;;;;5020143;28;20422;-76
2023/03/05 09:09:39;;;;;;;17.85;8.30;;;2.20;99.90;;;;;;5048116;28;20114;-77
2023/03/05 09:12:06;;;;;;;13.95;7.10;;;2.30;99.90;;;;;;5040111;28;20041;-78
2023/03/05 09:14:35;;;;;;;18.77;8.77;;;2.40;99.90;;;;;;5045002;28;20037;-76
2023/03/05 09:17:02;;;;;;;13.75;7.32;;;2.30;99.90;;;;;;5036418;28;20388;-76
2023/03/05 09:19:28;;;;;;;22.38;10.15;;;2.40;99.90;;;;;;5032288;28;20041;-78
2023/03/05 09:21:55;;;;;;;16.75;10.52;;;2.40;99.90;;;;;;5026388;28;20040;-78
2023/03/05 09:24:23;;;;;;;14.52;8.13;;;2.50;99.90;;;;;;5039350;28;20060;-77
2023/03/05 09:26:49;;;;;;;14.25;8.13;;;2.40;99.90;;;;;;5027951;28;20124;-77
2023/03/05 09:29:16;;;;;;;13.25;7.22;;;2.40;99.90;;;;;;5039898;28;20044;-76
2023/03/05 09:31:43;;;;;;;15.23;6.85;;;2.40;99.90;;;;;;5027172;28;20033;-77
2023/03/05 09:34:10;;;;;;;17.45;9.32;;;2.40;99.90;;;;;;5039026;28;20102;-78
2023/03/05 09:36:37;;;;;;;12.13;8.60;;;2.40;99.90;;;;;;5038343;28;20045;-77
2023/03/05 09:39:05;;;;;;;15.90;9.13;;;2.50;99.90;;;;;;5044175;28;20033;-77
2023/03/05 09:42:03;;;;;;;19.02;8.70;;;2.50;99.90;;;;;;5043750;28;20385;-78
2023/03/05 09:44:57;;;;;;;20.90;10.55;;;2.50;99.90;;;;;;5038044;28;20048;-76
2023/03/05 09:47:44;;;;;;;20.97;10.40;;;2.50;99.90;;;;;;5043412;28;20461;-78
2023/03/05 09:50:33;;;;;;;15.20;7.68;;;2.50;99.90;;;;;;5025433;28;20046;-78
2023/03/05 09:53:19;;;;;;;12.10;7.32;;;2.60;99.90;;;;;;5037220;28;20044;-78
2023/03/05 09:55:50;;;;;;;10.77;6.80;;;2.60;99.90;;;;;;5033709;28;20040;-78
2023/03/05 09:58:41;;;;;;;15.02;8.57;;;2.60;99.90;;;;;;5035540;28;20049;-76
2023/03/05 10:01:13;;;;;;;19.48;9.65;;;2.60;99.90;;;;;;5064421;28;20045;-77
2023/03/05 10:04:02;;;;;;;14.27;9.18;;;2.70;99.90;;;;;;5057130;28;20333;-77
2023/03/05 10:06:31;;;;;;;14.23;8.98;;;2.80;99.90;;;;;;5049530;28;20044;-77
2023/03/05 10:09:21;;;;;;;17.20;8.77;;;2.80;99.90;;;;;;5037794;28;20071;-75
2023/03/05 10:11:59;;;;;;;10.82;8.98;;;2.80;99.90;;;;;;5052551;28;20044;-75
2023/03/05 10:14:33;;;;;;;8.40;7.57;;;2.90;99.90;;;;;;5038211;28;20139;-78
2023/03/05 10:17:02;;;;;;;11.80;7.53;;;2.80;99.90;;;;;;5036488;28;20355;-76
2023/03/05 10:19:50;;;;;;;14.73;7.80;;;2.90;99.90;;;;;;5037278;28;20162;-78
2023/03/05 10:22:48;;;;;;;10.85;7.85;;;2.90;99.90;;;;;;5057330;28;20144;-78
2023/03/05 10:25:41;;;;;;;11.10;7.28;;;2.80;99.90;;;;;;5033116;28;20494;-78
2023/03/05 10:28:18;;;;;;;12.27;8.43;;;2.80;99.90;;;;;;5019115;28;20317;-75
2023/03/05 10:31:10;;;;;;;17.95;8.20;;;2.80;99.90;;;;;;5020304;28;20051;-78
2023/03/05 10:33:52;;;;;;;10.55;7.38;;;3.00;99.90;;;;;;5038523;28;20549;-75
2023/03/05 10:36:30;;;;;;;10.13;7.85;;;3.20;99.90;;;;;;5035650;28;20036;-76
2023/03/05 10:39:26;;;;;;;12.80;8.85;;;3.30;99.90;;;;;;5043535;28;20144;-76
2023/03/05 10:42:19;;;;;;;21.00;14.05;;;3.30;99.90;;;;;;5036587;28;20040;-75
2023/03/05 10:44:51;;;;;;;8.63;7.68;;;3.50;99.90;;;;;;5033683;28;20047;-76
2023/03/05 10:47:34;;;;;;;10.30;8.45;;;3.60;99.90;;;;;;5041030;28;20063;-74
2023/03/05 10:50:01;;;;;;;10.50;9.48;;;3.50;99.90;;;;;;5040933;28;20131;-77
2023/03/05 10:52:39;;;;;;;12.80;9.43;;;3.50;99.90;;;;;;5037331;28;20046;-75
2023/03/05 10:55:19;;;;;;;11.52;10.48;;;3.60;99.90;;;;;;5048744;28;20044;-74
2023/03/05 10:57:46;;;;;;;10.82;9.82;;;3.50;99.90;;;;;;5048229;28;20033;-75
2023/03/05 11:00:26;;;;;;;13.52;10.10;;;3.50;99.90;;;;;;5039805;28;20060;-74
2023/03/05 11:02:59;;;;;;;13.70;11.75;;;3.60;99.90;;;;;;5050726;28;20048;-73
2023/03/05 11:05:38;;;;;;;19.25;10.85;;;3.40;99.90;;;;;;5036535;28;20098;-76
2023/03/05 11:08:34;;;;;;;11.27;10.23;;;3.40;99.90;;;;;;5041250;28;20057;-75
2023/03/05 11:11:11;;;;;;;13.05;11.80;;;3.50;99.90;;;;;;5057055;28;20072;-77
2023/03/05 11:13:59;;;;;;;14.57;12.25;;;3.60;99.90;;;;;;5037749;28;20110;-76
2023/03/05 11:16:31;;;;;;;12.75;11.32;;;3.80;99.90;;;;;;5038873;28;20037;-75
2023/03/05 11:19:14;;;;;;;13.85;12.55;;;4.00;99.90;;;;;;5038642;28;20300;-75
2023/03/05 11:21:42;;;;;;;14.25;13.18;;;4.50;99.90;;;;;;5024762;28;20064;-76
2023/03/05 11:24:18;;;;;;;17.95;16.75;;;4.40;99.90;;;;;;5054496;28;20513;-75
2023/03/05 11:26:53;;;;;;;22.08;20.58;;;4.10;99.90;;;;;;5037872;28;20126;-77
2023/03/05 11:29:33;;;;;;;20.80;19.42;;;4.00;99.90;;;;;;5049478;28;20044;-77
2023/03/05 11:32:22;;;;;;;19.42;18.25;;;4.10;99.90;;;;;;5035472;28;20049;-75
2023/03/05 11:34:50;;;;;;;16.08;15.05;;;3.90;99.90;;;;;;5033582;28;20094;-76
2023/03/05 11:37:30;;;;;;;16.92;15.75;;;4.20;99.90;;;;;;5037769;28;20041;-74
2023/03/05 11:40:09;;;;;;;16.83;16.00;;;4.50;99.90;;;;;;5033593;28;20051;-75
2023/03/05 11:42:39;;;;;;;16.48;15.20;;;4.80;99.90;;;;;;5033008;28;20048;-75
2023/03/05 11:45:13;;;;;;;20.48;19.20;;;5.00;99.90;;;;;;5055295;28;20314;-75
2023/03/05 11:47:47;;;;;;;21.23;19.70;;;4.80;99.90;;;;;;5039594;28;20048;-77
2023/03/05 11:50:28;;;;;;;20.58;19.27;;;4.60;99.90;;;;;;5036680;28;20041;-76
2023/03/05 11:52:57;;;;;;;19.55;18.35;;;4.60;99.90;;;;;;5038695;28;20148;-76
2023/03/05 11:55:29;;;;;;;18.15;16.98;;;4.60;99.90;;;;;;5042226;28;20285;-76
2023/03/05 11:58:23;;;;;;;19.63;18.50;;;4.70;99.90;;;;;;5051451;28;20037;-75
2023/03/05 12:00:50;;;;;;;19.80;18.48;;;4.60;99.90;;;;;;5035698;28;20127;-78
2023/03/05 12:03:21;;;;;;;21.30;18.30;;;4.50;99.90;;;;;;5044770;28;20068;-76
2023/03/05 12:06:04;;;;;;;19.77;18.27;;;4.40;99.90;;;;;;5048576;28;20055;-78
2023/03/05 12:08:34;;;;;;;22.55;21.23;;;4.20;99.90;;;;;;5042096;28;20040;-77
2023/03/05 12:11:14;;;;;;;23.17;22.08;;;4.10;99.90;;;;;;5064991;28;20047;-76
2023/03/05 12:13:45;;;;;;;24.45;23.20;;;4.10;99.90;;;;;;5052044;28;20083;-76
2023/03/05 12:16:40;;;;;;;21.65;20.00;;;4.20;99.90;;;;;;5069604;28;20517;-76
2023/03/05 12:19:55;;;;;;;15.00;14.00;;;4.10;99.90;;;;;;5046836;28;20048;-77
2023/03/05 12:22:25;;;;;;;11.20;10.50;;;3.80;99.90;;;;;;4974921;28;20327;-77
2023/03/05 12:24:52;;;;;;;12.73;11.65;;;3.70;99.90;;;;;;4955656;28;20034;-75
2023/03/05 12:27:34;;;;;;;12.57;11.65;;;3.80;99.90;;;;;;5013428;28;20106;-76
2023/03/05 12:30:01;;;;;;;14.05;13.02;;;3.80;99.90;;;;;;5046939;28;20139;-75
2023/03/05 12:32:28;;;;;;;19.13;17.25;;;3.90;99.90;;;;;;5035755;28;20040;-75
2023/03/05 12:34:56;;;;;;;18.45;17.45;;;4.00;99.90;;;;;;5043871;28;20482;-77
2023/03/05 12:37:23;;;;;;;18.45;17.27;;;3.90;99.90;;;;;;5060158;28;20127;-78
2023/03/05 12:39:51;;;;;;;18.85;17.75;;;3.90;99.90;;;;;;5036114;28;20058;-76
2023/03/05 12:42:27;;;;;;;20.65;19.15;;;3.90;99.90;;;;;;5037206;28;20168;-76
2023/03/05 12:45:13;;;;;;;20.58;19.38;;;3.80;99.90;;;;;;5050160;28;20404;-76
2023/03/05 12:47:56;;;;;;;20.20;19.00;;;3.90;99.90;;;;;;5053016;28;20052;-77
2023/03/05 12:50:28;;;;;;;20.50;19.40;;;3.90;99.90;;;;;;5046564;28;20056;-75
2023/03/05 12:53:01;;;;;;;21.10;19.92;;;4.00;99.90;;;;;;5054695;28;20728;-77
2023/03/05 12:55:32;;;;;;;20.35;19.02;;;4.10;99.90;;;;;;5036347;28;20382;-76
2023/03/05 12:58:06;;;;;;;19.80;18.85;;;4.30;99.90;;;;;;5046922;28;20086;-75